sensor_id;sensor_type;location;lat;lon;timestamp;P1;durP1;ratioP1;P2;durP2;ratioP2
18568;SDS011;14780;48.316;-1.050;2022-12-07T00:02:35;5.07;;;3.67;;
18568;SDS011;14780;48.316;-1.050;2022-12-07T00:05:20;4.75;;;3.63;;
18568;SDS011;14780;48.316;-1.050;2022-12-07T00:08:05;4.35;;;3.63;;
18568;SDS011;14780;48.316;-1.050;2022-12-07T00:10:50;4.65;;;3.42;;
18568;SDS011;14780;48.316;-1.050;2022-12-07T00:13:35;4.95;;;3.78;;
18568;SDS011;14780;48.316;-1.050;2022-12-07T00:16:21;5.05;;;3.67;;
18568;SDS011;14780;48.316;-1.050;2022-12-07T00:19:08;5.43;;;3.83;;
18568;SDS011;14780;48.316;-1.050;2022-12-07T00:21:55;5.07;;;3.72;;
18568;SDS011;14780;48.316;-1.050;2022-12-07T00:24:40;4.80;;;3.50;;
18568;SDS011;14780;48.316;-1.050;2022-12-07T00:27:25;5.10;;;3.55;;
18568;SDS011;14780;48.316;-1.050;2022-12-07T00:30:10;4.32;;;3.42;;
18568;SDS011;14780;48.316;-1.050;2022-12-07T00:32:55;5.45;;;3.80;;
18568;SDS011;14780;48.316;-1.050;2022-12-07T00:35:40;4.90;;;3.75;;
18568;SDS011;14780;48.316;-1.050;2022-12-07T00:38:24;6.32;;;4.00;;
18568;SDS011;14780;48.316;-1.050;2022-12-07T00:41:16;4.13;;;3.47;;
18568;SDS011;14780;48.316;-1.050;2022-12-07T00:44:03;5.13;;;3.70;;
18568;SDS011;14780;48.316;-1.050;2022-12-07T00:46:47;5.07;;;3.83;;
18568;SDS011;14780;48.316;-1.050;2022-12-07T00:49:32;4.85;;;3.90;;
18568;SDS011;14780;48.316;-1.050;2022-12-07T00:52:17;5.32;;;3.95;;
18568;SDS011;14780;48.316;-1.050;2022-12-07T00:55:02;5.13;;;3.90;;
18568;SDS011;14780;48.316;-1.050;2022-12-07T00:57:47;4.93;;;3.80;;
18568;SDS011;14780;48.316;-1.050;2022-12-07T01:00:31;6.20;;;4.30;;
18568;SDS011;14780;48.316;-1.050;2022-12-07T01:03:17;5.30;;;4.10;;
18568;SDS011;14780;48.316;-1.050;2022-12-07T01:06:02;4.65;;;3.70;;
18568;SDS011;14780;48.316;-1.050;2022-12-07T01:08:47;5.38;;;4.10;;
18568;SDS011;14780;48.316;-1.050;2022-12-07T01:11:32;4.88;;;3.78;;
18568;SDS011;14780;48.316;-1.050;2022-12-07T01:14:17;5.57;;;4.05;;
18568;SDS011;14780;48.316;-1.050;2022-12-07T01:17:02;5.15;;;3.65;;
18568;SDS011;14780;48.316;-1.050;2022-12-07T01:19:46;5.65;;;4.10;;
18568;SDS011;14780;48.316;-1.050;2022-12-07T01:22:35;5.55;;;4.18;;
18568;SDS011;14780;48.316;-1.050;2022-12-07T01:25:24;5.43;;;3.80;;
18568;SDS011;14780;48.316;-1.050;2022-12-07T01:28:08;5.00;;;3.97;;
18568;SDS011;14780;48.316;-1.050;2022-12-07T01:30:59;5.85;;;4.20;;
18568;SDS011;14780;48.316;-1.050;2022-12-07T01:33:47;5.28;;;4.03;;
18568;SDS011;14780;48.316;-1.050;2022-12-07T01:36:34;5.30;;;4.18;;
18568;SDS011;14780;48.316;-1.050;2022-12-07T01:39:19;5.93;;;3.90;;
18568;SDS011;14780;48.316;-1.050;2022-12-07T01:42:04;5.63;;;4.25;;
18568;SDS011;14780;48.316;-1.050;2022-12-07T01:48:01;4.85;;;4.00;;
18568;SDS011;14780;48.316;-1.050;2022-12-07T01:50:48;5.50;;;4.25;;
18568;SDS011;14780;48.316;-1.050;2022-12-07T01:53:36;5.63;;;4.15;;
18568;SDS011;14780;48.316;-1.050;2022-12-07T01:56:25;5.20;;;4.10;;
18568;SDS011;14780;48.316;-1.050;2022-12-07T01:59:13;5.00;;;3.90;;
18568;SDS011;14780;48.316;-1.050;2022-12-07T02:01:58;4.63;;;3.65;;
18568;SDS011;14780;48.316;-1.050;2022-12-07T02:04:46;4.68;;;3.80;;
18568;SDS011;14780;48.316;-1.050;2022-12-07T02:07:30;4.60;;;3.88;;
18568;SDS011;14780;48.316;-1.050;2022-12-07T02:10:22;5.05;;;3.75;;
18568;SDS011;14780;48.316;-1.050;2022-12-07T02:13:16;4.97;;;3.63;;
18568;SDS011;14780;48.316;-1.050;2022-12-07T02:22:44;4.93;;;3.72;;
18568;SDS011;14780;48.316;-1.050;2022-12-07T02:37:51;4.82;;;3.25;;
18568;SDS011;14780;48.316;-1.050;2022-12-07T02:43:47;4.20;;;3.15;;
18568;SDS011;14780;48.316;-1.050;2022-12-07T02:46:42;4.45;;;3.20;;
18568;SDS011;14780;48.316;-1.050;2022-12-07T02:49:32;5.45;;;3.30;;
18568;SDS011;14780;48.316;-1.050;2022-12-07T02:52:17;3.85;;;2.92;;
18568;SDS011;14780;48.316;-1.050;2022-12-07T02:55:02;3.97;;;3.00;;
18568;SDS011;14780;48.316;-1.050;2022-12-07T03:08:21;4.03;;;3.10;;
18568;SDS011;14780;48.316;-1.050;2022-12-07T03:16:47;3.70;;;2.72;;
18568;SDS011;14780;48.316;-1.050;2022-12-07T03:19:44;3.05;;;2.60;;
18568;SDS011;14780;48.316;-1.050;2022-12-07T03:22:31;3.88;;;2.90;;
18568;SDS011;14780;48.316;-1.050;2022-12-07T03:25:19;3.10;;;2.60;;
18568;SDS011;14780;48.316;-1.050;2022-12-07T03:28:05;3.60;;;2.53;;
18568;SDS011;14780;48.316;-1.050;2022-12-07T03:30:52;3.20;;;2.30;;
18568;SDS011;14780;48.316;-1.050;2022-12-07T03:40:30;3.25;;;2.60;;
18568;SDS011;14780;48.316;-1.050;2022-12-07T03:42:52;3.40;;;2.60;;
18568;SDS011;14780;48.316;-1.050;2022-12-07T03:45:40;3.60;;;2.60;;
18568;SDS011;14780;48.316;-1.050;2022-12-07T03:48:37;3.72;;;2.80;;
18568;SDS011;14780;48.316;-1.050;2022-12-07T03:54:36;3.75;;;2.83;;
18568;SDS011;14780;48.316;-1.050;2022-12-07T03:57:26;3.35;;;2.40;;
18568;SDS011;14780;48.316;-1.050;2022-12-07T04:00:14;3.25;;;2.45;;
18568;SDS011;14780;48.316;-1.050;2022-12-07T04:02:59;3.53;;;2.40;;
18568;SDS011;14780;48.316;-1.050;2022-12-07T04:05:44;3.58;;;2.67;;
18568;SDS011;14780;48.316;-1.050;2022-12-07T04:08:29;3.60;;;2.47;;
18568;SDS011;14780;48.316;-1.050;2022-12-07T04:11:13;5.25;;;2.58;;
18568;SDS011;14780;48.316;-1.050;2022-12-07T04:13:58;2.97;;;2.15;;
18568;SDS011;14780;48.316;-1.050;2022-12-07T04:17:01;2.88;;;2.40;;
18568;SDS011;14780;48.316;-1.050;2022-12-07T04:19:46;3.47;;;2.65;;
18568;SDS011;14780;48.316;-1.050;2022-12-07T04:22:31;3.28;;;2.40;;
18568;SDS011;14780;48.316;-1.050;2022-12-07T04:25:15;3.30;;;2.22;;
18568;SDS011;14780;48.316;-1.050;2022-12-07T04:28:00;2.67;;;2.17;;
18568;SDS011;14780;48.316;-1.050;2022-12-07T04:30:45;8.48;;;2.50;;
18568;SDS011;14780;48.316;-1.050;2022-12-07T04:33:30;2.50;;;2.00;;
18568;SDS011;14780;48.316;-1.050;2022-12-07T04:36:14;2.75;;;2.22;;
18568;SDS011;14780;48.316;-1.050;2022-12-07T04:39:00;3.40;;;2.28;;
18568;SDS011;14780;48.316;-1.050;2022-12-07T04:41:45;3.60;;;2.55;;
18568;SDS011;14780;48.316;-1.050;2022-12-07T04:44:30;2.97;;;2.30;;
18568;SDS011;14780;48.316;-1.050;2022-12-07T04:47:15;3.40;;;2.05;;
18568;SDS011;14780;48.316;-1.050;2022-12-07T04:50:01;2.92;;;2.22;;
18568;SDS011;14780;48.316;-1.050;2022-12-07T04:52:46;2.83;;;2.20;;
18568;SDS011;14780;48.316;-1.050;2022-12-07T04:55:30;3.40;;;2.35;;
18568;SDS011;14780;48.316;-1.050;2022-12-07T04:58:15;4.28;;;2.40;;
18568;SDS011;14780;48.316;-1.050;2022-12-07T05:00:59;3.33;;;2.30;;
18568;SDS011;14780;48.316;-1.050;2022-12-07T05:03:44;2.70;;;2.30;;
18568;SDS011;14780;48.316;-1.050;2022-12-07T05:06:29;2.83;;;2.17;;
18568;SDS011;14780;48.316;-1.050;2022-12-07T05:09:13;3.72;;;2.20;;
18568;SDS011;14780;48.316;-1.050;2022-12-07T05:11:59;2.25;;;2.00;;
18568;SDS011;14780;48.316;-1.050;2022-12-07T05:14:43;2.30;;;2.00;;
18568;SDS011;14780;48.316;-1.050;2022-12-07T05:17:28;2.97;;;2.20;;
18568;SDS011;14780;48.316;-1.050;2022-12-07T05:20:13;2.50;;;2.00;;
18568;SDS011;14780;48.316;-1.050;2022-12-07T05:22:57;3.08;;;2.22;;
18568;SDS011;14780;48.316;-1.050;2022-12-07T05:25:42;2.80;;;2.10;;
18568;SDS011;14780;48.316;-1.050;2022-12-07T05:28:27;3.42;;;1.90;;
18568;SDS011;14780;48.316;-1.050;2022-12-07T05:31:12;3.35;;;2.20;;
18568;SDS011;14780;48.316;-1.050;2022-12-07T05:33:57;2.58;;;2.10;;
18568;SDS011;14780;48.316;-1.050;2022-12-07T05:36:41;2.72;;;2.10;;
18568;SDS011;14780;48.316;-1.050;2022-12-07T05:39:26;3.08;;;2.10;;
18568;SDS011;14780;48.316;-1.050;2022-12-07T05:42:10;2.75;;;2.00;;
18568;SDS011;14780;48.316;-1.050;2022-12-07T05:44:55;2.05;;;1.80;;
18568;SDS011;14780;48.316;-1.050;2022-12-07T05:47:40;3.15;;;2.08;;
18568;SDS011;14780;48.316;-1.050;2022-12-07T05:50:24;2.65;;;2.05;;
18568;SDS011;14780;48.316;-1.050;2022-12-07T05:53:09;2.80;;;1.98;;
18568;SDS011;14780;48.316;-1.050;2022-12-07T05:55:54;2.55;;;1.95;;
18568;SDS011;14780;48.316;-1.050;2022-12-07T05:58:39;2.25;;;2.00;;
18568;SDS011;14780;48.316;-1.050;2022-12-07T06:01:42;2.85;;;2.00;;
18568;SDS011;14780;48.316;-1.050;2022-12-07T06:04:29;2.10;;;1.90;;
18568;SDS011;14780;48.316;-1.050;2022-12-07T06:07:19;2.33;;;1.90;;
18568;SDS011;14780;48.316;-1.050;2022-12-07T06:10:04;2.30;;;1.90;;
18568;SDS011;14780;48.316;-1.050;2022-12-07T06:12:49;2.10;;;1.90;;
18568;SDS011;14780;48.316;-1.050;2022-12-07T06:15:37;2.10;;;1.80;;
18568;SDS011;14780;48.316;-1.050;2022-12-07T06:18:22;2.72;;;1.92;;
18568;SDS011;14780;48.316;-1.050;2022-12-07T06:21:06;2.33;;;1.80;;
18568;SDS011;14780;48.316;-1.050;2022-12-07T06:23:52;1.95;;;1.70;;
18568;SDS011;14780;48.316;-1.050;2022-12-07T06:26:37;2.28;;;1.60;;
18568;SDS011;14780;48.316;-1.050;2022-12-07T06:29:22;2.22;;;1.90;;
18568;SDS011;14780;48.316;-1.050;2022-12-07T06:32:06;2.42;;;1.90;;
18568;SDS011;14780;48.316;-1.050;2022-12-07T06:34:52;2.47;;;1.83;;
18568;SDS011;14780;48.316;-1.050;2022-12-07T06:37:36;2.22;;;1.80;;
18568;SDS011;14780;48.316;-1.050;2022-12-07T06:40:21;1.98;;;1.65;;
18568;SDS011;14780;48.316;-1.050;2022-12-07T06:43:06;1.58;;;1.48;;
18568;SDS011;14780;48.316;-1.050;2022-12-07T06:45:51;2.20;;;1.73;;
18568;SDS011;14780;48.316;-1.050;2022-12-07T06:48:36;2.03;;;1.80;;
18568;SDS011;14780;48.316;-1.050;2022-12-07T06:51:20;2.05;;;1.85;;
18568;SDS011;14780;48.316;-1.050;2022-12-07T06:54:05;2.00;;;1.80;;
18568;SDS011;14780;48.316;-1.050;2022-12-07T06:56:53;2.17;;;1.90;;
18568;SDS011;14780;48.316;-1.050;2022-12-07T06:59:39;1.92;;;1.50;;
18568;SDS011;14780;48.316;-1.050;2022-12-07T07:02:24;1.80;;;1.63;;
18568;SDS011;14780;48.316;-1.050;2022-12-07T07:05:09;2.10;;;1.85;;
18568;SDS011;14780;48.316;-1.050;2022-12-07T07:07:54;1.85;;;1.67;;
18568;SDS011;14780;48.316;-1.050;2022-12-07T07:10:38;2.42;;;1.77;;
18568;SDS011;14780;48.316;-1.050;2022-12-07T07:13:24;3.40;;;1.60;;
18568;SDS011;14780;48.316;-1.050;2022-12-07T07:16:08;1.67;;;1.58;;
18568;SDS011;14780;48.316;-1.050;2022-12-07T07:18:54;2.47;;;1.67;;
18568;SDS011;14780;48.316;-1.050;2022-12-07T07:21:38;2.00;;;1.67;;
18568;SDS011;14780;48.316;-1.050;2022-12-07T07:24:23;3.10;;;2.03;;
18568;SDS011;14780;48.316;-1.050;2022-12-07T07:27:08;2.38;;;1.75;;
18568;SDS011;14780;48.316;-1.050;2022-12-07T07:29:52;2.83;;;1.88;;
18568;SDS011;14780;48.316;-1.050;2022-12-07T07:32:37;2.58;;;1.77;;
18568;SDS011;14780;48.316;-1.050;2022-12-07T07:35:21;2.55;;;1.90;;
18568;SDS011;14780;48.316;-1.050;2022-12-07T07:38:06;2.60;;;1.90;;
18568;SDS011;14780;48.316;-1.050;2022-12-07T07:40:51;2.63;;;1.80;;
18568;SDS011;14780;48.316;-1.050;2022-12-07T07:43:36;3.78;;;2.00;;
18568;SDS011;14780;48.316;-1.050;2022-12-07T07:46:21;2.55;;;1.83;;
18568;SDS011;14780;48.316;-1.050;2022-12-07T07:49:05;2.50;;;1.90;;
18568;SDS011;14780;48.316;-1.050;2022-12-07T07:51:50;3.17;;;2.28;;
18568;SDS011;14780;48.316;-1.050;2022-12-07T07:54:35;3.13;;;2.28;;
18568;SDS011;14780;48.316;-1.050;2022-12-07T07:57:19;3.03;;;2.22;;
18568;SDS011;14780;48.316;-1.050;2022-12-07T08:00:04;4.75;;;2.45;;
18568;SDS011;14780;48.316;-1.050;2022-12-07T08:02:54;3.85;;;2.63;;
18568;SDS011;14780;48.316;-1.050;2022-12-07T08:05:40;3.65;;;2.28;;
18568;SDS011;14780;48.316;-1.050;2022-12-07T08:08:24;3.13;;;2.40;;
18568;SDS011;14780;48.316;-1.050;2022-12-07T08:11:09;3.60;;;2.55;;
18568;SDS011;14780;48.316;-1.050;2022-12-07T08:13:54;3.58;;;2.33;;
18568;SDS011;14780;48.316;-1.050;2022-12-07T08:16:38;3.05;;;2.40;;
18568;SDS011;14780;48.316;-1.050;2022-12-07T08:19:23;4.22;;;2.60;;
18568;SDS011;14780;48.316;-1.050;2022-12-07T08:22:08;3.38;;;2.55;;
18568;SDS011;14780;48.316;-1.050;2022-12-07T08:24:53;3.80;;;2.60;;
18568;SDS011;14780;48.316;-1.050;2022-12-07T08:27:38;3.28;;;2.30;;
18568;SDS011;14780;48.316;-1.050;2022-12-07T08:30:22;4.05;;;2.97;;
18568;SDS011;14780;48.316;-1.050;2022-12-07T08:33:07;4.35;;;2.80;;
18568;SDS011;14780;48.316;-1.050;2022-12-07T08:35:52;3.28;;;2.47;;
18568;SDS011;14780;48.316;-1.050;2022-12-07T08:38:38;3.30;;;2.55;;
18568;SDS011;14780;48.316;-1.050;2022-12-07T08:41:24;4.15;;;3.03;;
18568;SDS011;14780;48.316;-1.050;2022-12-07T08:44:08;5.70;;;2.90;;
18568;SDS011;14780;48.316;-1.050;2022-12-07T08:46:54;3.60;;;2.70;;
18568;SDS011;14780;48.316;-1.050;2022-12-07T08:49:45;4.07;;;2.80;;
18568;SDS011;14780;48.316;-1.050;2022-12-07T08:52:32;5.30;;;2.90;;
18568;SDS011;14780;48.316;-1.050;2022-12-07T08:55:19;3.42;;;2.80;;
18568;SDS011;14780;48.316;-1.050;2022-12-07T08:58:05;4.03;;;2.75;;
18568;SDS011;14780;48.316;-1.050;2022-12-07T09:00:49;3.85;;;2.53;;
18568;SDS011;14780;48.316;-1.050;2022-12-07T09:03:34;2.95;;;2.50;;
18568;SDS011;14780;48.316;-1.050;2022-12-07T09:06:19;3.17;;;2.60;;
18568;SDS011;14780;48.316;-1.050;2022-12-07T09:09:04;3.78;;;2.83;;
18568;SDS011;14780;48.316;-1.050;2022-12-07T09:11:50;3.10;;;2.53;;
18568;SDS011;14780;48.316;-1.050;2022-12-07T09:14:35;3.45;;;2.67;;
18568;SDS011;14780;48.316;-1.050;2022-12-07T09:17:19;3.88;;;2.92;;
18568;SDS011;14780;48.316;-1.050;2022-12-07T09:20:05;3.65;;;2.65;;
18568;SDS011;14780;48.316;-1.050;2022-12-07T09:22:50;3.80;;;2.78;;
18568;SDS011;14780;48.316;-1.050;2022-12-07T09:25:35;3.47;;;2.70;;
18568;SDS011;14780;48.316;-1.050;2022-12-07T09:28:20;3.13;;;2.50;;
18568;SDS011;14780;48.316;-1.050;2022-12-07T09:31:05;2.83;;;2.40;;
18568;SDS011;14780;48.316;-1.050;2022-12-07T09:33:56;3.40;;;2.60;;
18568;SDS011;14780;48.316;-1.050;2022-12-07T09:36:43;3.40;;;2.60;;
18568;SDS011;14780;48.316;-1.050;2022-12-07T09:39:28;3.22;;;2.53;;
18568;SDS011;14780;48.316;-1.050;2022-12-07T09:45:15;3.83;;;2.50;;
18568;SDS011;14780;48.316;-1.050;2022-12-07T09:48:04;3.28;;;2.47;;
18568;SDS011;14780;48.316;-1.050;2022-12-07T09:50:58;3.53;;;2.83;;
18568;SDS011;14780;48.316;-1.050;2022-12-07T09:53:44;3.65;;;2.88;;
18568;SDS011;14780;48.316;-1.050;2022-12-07T09:56:30;3.78;;;2.70;;
18568;SDS011;14780;48.316;-1.050;2022-12-07T09:59:16;3.85;;;2.80;;
18568;SDS011;14780;48.316;-1.050;2022-12-07T10:02:19;3.55;;;2.90;;
18568;SDS011;14780;48.316;-1.050;2022-12-07T10:05:16;3.72;;;2.70;;
18568;SDS011;14780;48.316;-1.050;2022-12-07T10:08:07;4.35;;;3.00;;
18568;SDS011;14780;48.316;-1.050;2022-12-07T10:10:55;3.28;;;2.63;;
18568;SDS011;14780;48.316;-1.050;2022-12-07T10:13:41;3.88;;;3.00;;
18568;SDS011;14780;48.316;-1.050;2022-12-07T10:16:40;4.30;;;3.22;;
18568;SDS011;14780;48.316;-1.050;2022-12-07T10:19:27;4.13;;;2.92;;
18568;SDS011;14780;48.316;-1.050;2022-12-07T10:22:14;5.68;;;3.03;;
18568;SDS011;14780;48.316;-1.050;2022-12-07T10:25:07;3.67;;;2.70;;
18568;SDS011;14780;48.316;-1.050;2022-12-07T10:30:59;3.65;;;2.75;;
18568;SDS011;14780;48.316;-1.050;2022-12-07T10:36:37;4.05;;;3.10;;
18568;SDS011;14780;48.316;-1.050;2022-12-07T10:39:23;4.35;;;3.20;;
18568;SDS011;14780;48.316;-1.050;2022-12-07T10:42:15;5.70;;;3.55;;
18568;SDS011;14780;48.316;-1.050;2022-12-07T10:45:07;4.30;;;3.30;;
18568;SDS011;14780;48.316;-1.050;2022-12-07T10:47:59;3.72;;;2.95;;
18568;SDS011;14780;48.316;-1.050;2022-12-07T11:00:25;4.43;;;3.15;;
18568;SDS011;14780;48.316;-1.050;2022-12-07T11:09:23;4.03;;;2.97;;
18568;SDS011;14780;48.316;-1.050;2022-12-07T11:21:48;4.10;;;2.78;;
18568;SDS011;14780;48.316;-1.050;2022-12-07T11:24:48;3.65;;;2.90;;
18568;SDS011;14780;48.316;-1.050;2022-12-07T11:33:46;4.10;;;2.83;;
18568;SDS011;14780;48.316;-1.050;2022-12-07T11:36:54;3.88;;;2.83;;
18568;SDS011;14780;48.316;-1.050;2022-12-07T11:39:48;4.65;;;3.20;;
18568;SDS011;14780;48.316;-1.050;2022-12-07T11:42:37;3.92;;;2.97;;
18568;SDS011;14780;48.316;-1.050;2022-12-07T11:45:26;3.72;;;2.85;;
18568;SDS011;14780;48.316;-1.050;2022-12-07T11:48:22;4.40;;;2.97;;
18568;SDS011;14780;48.316;-1.050;2022-12-07T11:51:29;4.00;;;2.80;;
18568;SDS011;14780;48.316;-1.050;2022-12-07T11:54:21;4.15;;;3.05;;
18568;SDS011;14780;48.316;-1.050;2022-12-07T11:57:32;3.65;;;2.92;;
18568;SDS011;14780;48.316;-1.050;2022-12-07T12:00:21;4.30;;;3.00;;
18568;SDS011;14780;48.316;-1.050;2022-12-07T12:03:11;3.90;;;2.90;;
18568;SDS011;14780;48.316;-1.050;2022-12-07T12:06:01;3.65;;;2.65;;
18568;SDS011;14780;48.316;-1.050;2022-12-07T12:09:34;3.38;;;2.70;;
18568;SDS011;14780;48.316;-1.050;2022-12-07T12:18:42;3.05;;;2.63;;
18568;SDS011;14780;48.316;-1.050;2022-12-07T12:21:37;4.20;;;2.90;;
18568;SDS011;14780;48.316;-1.050;2022-12-07T12:24:23;3.20;;;2.45;;
18568;SDS011;14780;48.316;-1.050;2022-12-07T12:27:21;3.60;;;2.60;;
18568;SDS011;14780;48.316;-1.050;2022-12-07T12:30:24;3.58;;;2.60;;
18568;SDS011;14780;48.316;-1.050;2022-12-07T12:33:27;4.00;;;2.80;;
18568;SDS011;14780;48.316;-1.050;2022-12-07T12:48:26;3.40;;;2.35;;
18568;SDS011;14780;48.316;-1.050;2022-12-07T12:50:47;3.25;;;2.35;;
18568;SDS011;14780;48.316;-1.050;2022-12-07T12:53:32;3.03;;;2.50;;
18568;SDS011;14780;48.316;-1.050;2022-12-07T12:56:22;3.65;;;2.40;;
18568;SDS011;14780;48.316;-1.050;2022-12-07T12:59:28;4.22;;;2.38;;
18568;SDS011;14780;48.316;-1.050;2022-12-07T13:07:53;3.20;;;2.47;;
18568;SDS011;14780;48.316;-1.050;2022-12-07T13:10:41;4.25;;;2.60;;
18568;SDS011;14780;48.316;-1.050;2022-12-07T13:13:31;2.67;;;2.00;;
18568;SDS011;14780;48.316;-1.050;2022-12-07T13:19:27;2.58;;;2.20;;
18568;SDS011;14780;48.316;-1.050;2022-12-07T13:25:19;3.30;;;2.30;;
18568;SDS011;14780;48.316;-1.050;2022-12-07T13:28:23;2.72;;;2.15;;
18568;SDS011;14780;48.316;-1.050;2022-12-07T13:31:18;3.25;;;2.22;;
18568;SDS011;14780;48.316;-1.050;2022-12-07T13:40:17;3.45;;;2.30;;
18568;SDS011;14780;48.316;-1.050;2022-12-07T13:43:04;3.40;;;2.30;;
18568;SDS011;14780;48.316;-1.050;2022-12-07T13:45:58;2.42;;;2.05;;
18568;SDS011;14780;48.316;-1.050;2022-12-07T13:48:48;3.25;;;2.20;;
18568;SDS011;14780;48.316;-1.050;2022-12-07T13:51:35;2.65;;;2.05;;
18568;SDS011;14780;48.316;-1.050;2022-12-07T13:54:21;2.75;;;2.25;;
18568;SDS011;14780;48.316;-1.050;2022-12-07T13:57:06;2.55;;;2.10;;
18568;SDS011;14780;48.316;-1.050;2022-12-07T13:59:51;2.92;;;2.17;;
18568;SDS011;14780;48.316;-1.050;2022-12-07T14:02:53;2.65;;;2.05;;
18568;SDS011;14780;48.316;-1.050;2022-12-07T14:05:38;3.30;;;2.10;;
18568;SDS011;14780;48.316;-1.050;2022-12-07T14:08:25;4.22;;;2.45;;
18568;SDS011;14780;48.316;-1.050;2022-12-07T14:11:14;5.20;;;2.22;;
18568;SDS011;14780;48.316;-1.050;2022-12-07T14:14:04;3.33;;;2.35;;
18568;SDS011;14780;48.316;-1.050;2022-12-07T14:19:59;4.70;;;2.40;;
18568;SDS011;14780;48.316;-1.050;2022-12-07T14:22:54;6.13;;;2.47;;
18568;SDS011;14780;48.316;-1.050;2022-12-07T14:25:46;3.50;;;1.98;;
18568;SDS011;14780;48.316;-1.050;2022-12-07T14:28:34;2.60;;;1.80;;
18568;SDS011;14780;48.316;-1.050;2022-12-07T14:31:21;4.75;;;2.15;;
18568;SDS011;14780;48.316;-1.050;2022-12-07T14:34:11;7.47;;;3.10;;
18568;SDS011;14780;48.316;-1.050;2022-12-07T14:36:57;15.48;;;5.28;;
18568;SDS011;14780;48.316;-1.050;2022-12-07T14:39:41;15.13;;;4.90;;
18568;SDS011;14780;48.316;-1.050;2022-12-07T14:42:27;10.13;;;4.25;;
18568;SDS011;14780;48.316;-1.050;2022-12-07T14:45:15;11.05;;;4.57;;
18568;SDS011;14780;48.316;-1.050;2022-12-07T14:48:01;9.32;;;4.68;;
18568;SDS011;14780;48.316;-1.050;2022-12-07T14:50:50;11.63;;;4.53;;
18568;SDS011;14780;48.316;-1.050;2022-12-07T14:53:36;10.02;;;4.03;;
18568;SDS011;14780;48.316;-1.050;2022-12-07T14:56:25;14.13;;;4.65;;
18568;SDS011;14780;48.316;-1.050;2022-12-07T14:59:11;10.10;;;3.88;;
18568;SDS011;14780;48.316;-1.050;2022-12-07T15:01:56;9.20;;;3.53;;
18568;SDS011;14780;48.316;-1.050;2022-12-07T15:04:41;10.18;;;3.33;;
18568;SDS011;14780;48.316;-1.050;2022-12-07T15:07:26;11.05;;;3.58;;
18568;SDS011;14780;48.316;-1.050;2022-12-07T15:10:16;8.45;;;3.60;;
18568;SDS011;14780;48.316;-1.050;2022-12-07T15:13:05;8.98;;;3.85;;
18568;SDS011;14780;48.316;-1.050;2022-12-07T15:16:10;5.93;;;2.90;;
18568;SDS011;14780;48.316;-1.050;2022-12-07T15:19:00;7.35;;;3.25;;
18568;SDS011;14780;48.316;-1.050;2022-12-07T15:21:45;11.02;;;2.90;;
18568;SDS011;14780;48.316;-1.050;2022-12-07T15:24:30;5.72;;;3.03;;
18568;SDS011;14780;48.316;-1.050;2022-12-07T15:27:16;5.38;;;2.80;;
18568;SDS011;14780;48.316;-1.050;2022-12-07T15:30:01;5.30;;;2.85;;
18568;SDS011;14780;48.316;-1.050;2022-12-07T15:32:56;5.65;;;2.80;;
18568;SDS011;14780;48.316;-1.050;2022-12-07T15:35:44;6.45;;;2.38;;
18568;SDS011;14780;48.316;-1.050;2022-12-07T15:38:29;8.45;;;2.70;;
18568;SDS011;14780;48.316;-1.050;2022-12-07T15:41:14;5.75;;;2.40;;
18568;SDS011;14780;48.316;-1.050;2022-12-07T15:43:59;9.38;;;2.40;;
18568;SDS011;14780;48.316;-1.050;2022-12-07T15:47:03;6.43;;;2.65;;
18568;SDS011;14780;48.316;-1.050;2022-12-07T15:49:48;5.50;;;2.40;;
18568;SDS011;14780;48.316;-1.050;2022-12-07T15:52:33;3.78;;;2.40;;
18568;SDS011;14780;48.316;-1.050;2022-12-07T15:55:18;6.30;;;2.25;;
18568;SDS011;14780;48.316;-1.050;2022-12-07T15:58:02;3.53;;;2.10;;
18568;SDS011;14780;48.316;-1.050;2022-12-07T16:00:47;4.35;;;2.15;;
18568;SDS011;14780;48.316;-1.050;2022-12-07T16:03:31;3.50;;;2.10;;
18568;SDS011;14780;48.316;-1.050;2022-12-07T16:06:16;6.07;;;2.40;;
18568;SDS011;14780;48.316;-1.050;2022-12-07T16:09:03;4.32;;;2.08;;
18568;SDS011;14780;48.316;-1.050;2022-12-07T16:11:48;2.83;;;2.00;;
18568;SDS011;14780;48.316;-1.050;2022-12-07T16:14:36;3.38;;;1.90;;
18568;SDS011;14780;48.316;-1.050;2022-12-07T16:17:23;9.13;;;2.28;;
18568;SDS011;14780;48.316;-1.050;2022-12-07T16:20:08;4.10;;;2.00;;
18568;SDS011;14780;48.316;-1.050;2022-12-07T16:22:53;4.28;;;2.30;;
18568;SDS011;14780;48.316;-1.050;2022-12-07T16:25:38;6.07;;;2.10;;
18568;SDS011;14780;48.316;-1.050;2022-12-07T16:28:22;4.28;;;1.95;;
18568;SDS011;14780;48.316;-1.050;2022-12-07T16:31:08;5.97;;;2.30;;
18568;SDS011;14780;48.316;-1.050;2022-12-07T16:33:56;5.95;;;2.42;;
18568;SDS011;14780;48.316;-1.050;2022-12-07T16:36:41;7.28;;;2.20;;
18568;SDS011;14780;48.316;-1.050;2022-12-07T16:39:26;9.75;;;2.58;;
18568;SDS011;14780;48.316;-1.050;2022-12-07T16:42:11;3.33;;;2.25;;
18568;SDS011;14780;48.316;-1.050;2022-12-07T16:44:56;6.97;;;2.53;;
18568;SDS011;14780;48.316;-1.050;2022-12-07T16:47:40;6.35;;;2.40;;
18568;SDS011;14780;48.316;-1.050;2022-12-07T16:50:25;6.63;;;2.53;;
18568;SDS011;14780;48.316;-1.050;2022-12-07T16:53:10;2.92;;;2.25;;
18568;SDS011;14780;48.316;-1.050;2022-12-07T16:55:56;4.10;;;2.75;;
18568;SDS011;14780;48.316;-1.050;2022-12-07T16:58:41;7.05;;;2.90;;
18568;SDS011;14780;48.316;-1.050;2022-12-07T17:01:26;5.05;;;3.33;;
18568;SDS011;14780;48.316;-1.050;2022-12-07T17:04:11;5.22;;;3.22;;
18568;SDS011;14780;48.316;-1.050;2022-12-07T17:06:56;8.60;;;3.53;;
18568;SDS011;14780;48.316;-1.050;2022-12-07T17:09:42;9.15;;;3.60;;
18568;SDS011;14780;48.316;-1.050;2022-12-07T17:12:26;7.88;;;3.28;;
18568;SDS011;14780;48.316;-1.050;2022-12-07T17:15:11;4.25;;;2.92;;
18568;SDS011;14780;48.316;-1.050;2022-12-07T17:18:04;5.72;;;3.53;;
18568;SDS011;14780;48.316;-1.050;2022-12-07T17:20:48;6.97;;;3.00;;
18568;SDS011;14780;48.316;-1.050;2022-12-07T17:23:34;4.60;;;3.15;;
18568;SDS011;14780;48.316;-1.050;2022-12-07T17:26:21;8.20;;;3.15;;
18568;SDS011;14780;48.316;-1.050;2022-12-07T17:29:08;5.65;;;3.10;;
18568;SDS011;14780;48.316;-1.050;2022-12-07T17:31:56;5.45;;;2.90;;
18568;SDS011;14780;48.316;-1.050;2022-12-07T17:34:40;5.28;;;2.95;;
18568;SDS011;14780;48.316;-1.050;2022-12-07T17:37:25;4.75;;;3.00;;
18568;SDS011;14780;48.316;-1.050;2022-12-07T17:40:10;6.53;;;2.90;;
18568;SDS011;14780;48.316;-1.050;2022-12-07T17:42:58;7.25;;;2.83;;
18568;SDS011;14780;48.316;-1.050;2022-12-07T17:45:43;4.47;;;2.67;;
18568;SDS011;14780;48.316;-1.050;2022-12-07T17:48:27;4.78;;;3.13;;
18568;SDS011;14780;48.316;-1.050;2022-12-07T17:51:12;4.28;;;2.70;;
18568;SDS011;14780;48.316;-1.050;2022-12-07T17:54:16;4.40;;;3.10;;
18568;SDS011;14780;48.316;-1.050;2022-12-07T17:57:01;3.22;;;2.35;;
18568;SDS011;14780;48.316;-1.050;2022-12-07T17:59:46;7.32;;;3.20;;
18568;SDS011;14780;48.316;-1.050;2022-12-07T18:02:30;4.55;;;2.50;;
18568;SDS011;14780;48.316;-1.050;2022-12-07T18:05:15;3.88;;;2.53;;
18568;SDS011;14780;48.316;-1.050;2022-12-07T18:08:00;4.28;;;2.53;;
18568;SDS011;14780;48.316;-1.050;2022-12-07T18:10:45;4.93;;;2.70;;
18568;SDS011;14780;48.316;-1.050;2022-12-07T18:13:30;3.70;;;2.55;;
18568;SDS011;14780;48.316;-1.050;2022-12-07T18:16:20;7.25;;;2.80;;
18568;SDS011;14780;48.316;-1.050;2022-12-07T18:19:08;3.72;;;2.55;;
18568;SDS011;14780;48.316;-1.050;2022-12-07T18:21:56;4.35;;;2.63;;
18568;SDS011;14780;48.316;-1.050;2022-12-07T18:24:40;4.53;;;2.80;;
18568;SDS011;14780;48.316;-1.050;2022-12-07T18:27:26;3.83;;;2.50;;
18568;SDS011;14780;48.316;-1.050;2022-12-07T18:30:10;4.28;;;2.47;;
18568;SDS011;14780;48.316;-1.050;2022-12-07T18:32:56;5.85;;;2.25;;
18568;SDS011;14780;48.316;-1.050;2022-12-07T18:35:40;4.80;;;2.33;;
18568;SDS011;14780;48.316;-1.050;2022-12-07T18:38:26;5.32;;;2.33;;
18568;SDS011;14780;48.316;-1.050;2022-12-07T18:41:12;4.78;;;2.22;;
18568;SDS011;14780;48.316;-1.050;2022-12-07T18:43:58;4.30;;;2.22;;